Date,TemperatureHighF,TemperatureAvgF,TemperatureLowF,DewpointHighF,DewpointAvgF,DewpointLowF,HumidityHigh,HumidityAvg,HumidityLow,PressureMaxIn,PressureMinIn,WindSpeedMaxMPH,WindSpeedAvgMPH,GustSpeedMaxMPH,PrecipitationSumIn
2012-1-4,57,40,30,40,31,24,96,75,29,30.46,30.32,2,1,0,2.44
2012-1-5,66,47,34,49,41,32,97,80,52,30.34,30.19,6,2,0,1.30
2012-1-6,69,52,37,58,47,36,100,86,51,30.27,30.14,2,0,0,1.36
2012-1-7,72,52,34,58,46,33,99,84,44,30.23,30.14,3,0,0,0.83
2012-1-8,76,54,36,55,46,35,99,80,43,30.27,30.18,3,1,0,0.00
2012-1-9,77,57,41,62,52,40,99,85,49,30.26,30.12,4,1,0,0.00
2012-1-10,76,50,42,62,48,41,99,94,56,30.15,29.97,4,0,9,0.00
2012-1-11,71,61,47,67,58,46,98,91,76,30.01,29.81,8,3,23,0.06
2012-1-12,77,59,42,62,53,40,99,82,49,29.97,29.87,9,2,23,0.02
2012-1-13,60,55,46,58,41,30,96,63,34,30.26,29.98,5,3,23,0.00
2012-1-14,56,45,34,40,32,23,95,65,28,30.40,30.25,6,2,23,0.03
2012-1-15,67,50,35,46,33,-100,97,71,28,30.48,30.37,6,2,23,2.02
2012-1-16,70,50,37,53,39,-100,98,77,53,30.49,30.36,8,-41,23,1.21
2012-1-17,78,55,34,58,48,34,99,81,47,30.36,30.18,6,1,14,0.01
2012-1-18,77,57,39,61,52,38,98,86,52,30.19,30.02,6,2,13,0.06
2012-1-19,70,50,34,61,30,-100,97,64,22,30.21,30.06,5,-85,13,0.04
2012-1-20,75,32,40,55,-21,-100,100,36,44,30.23,30.13,5,-472,13,1.75
2012-1-21,77,56,37,59,48,36,99,80,44,30.19,30.05,7,1,13,0.00
2012-1-22,76,56,36,61,48,35,98,79,47,30.17,30.09,2,1,13,0.00
2012-1-23,81,63,44,65,56,43,100,83,49,30.18,30.07,4,1,13,0.00
2012-1-24,80,66,48,66,59,47,99,82,54,30.20,30.11,5,1,13,0.00
2012-1-25,82,64,45,67,56,44,100,79,45,30.20,30.10,6,2,13,0.00
2012-1-26,82,64,46,67,57,45,99,81,51,30.13,29.97,8,2,16,0.00
2012-1-27,69,64,51,66,61,50,98,92,82,30.08,29.96,9,4,10,0.00
2012-1-28,70,56,41,54,50,40,98,82,51,30.21,30.09,6,2,10,0.01
2012-1-29,72,58,42,55,48,41,99,73,33,30.33,30.20,5,2,10,0.00
2012-1-30,72,56,38,50,46,36,94,71,41,30.40,30.31,8,3,12,0.00
2012-1-31,75,60,34,58,52,33,99,78,49,30.38,30.25,7,3,12,0.00
2012-2-1,77,59,40,61,52,40,98,81,51,30.30,30.15,6,1,12,0.00
2012-2-2,78,63,47,66,56,46,99,82,49,30.20,30.10,4,1,12,0.00
2012-2-3,73,65,52,64,60,51,98,83,65,30.26,30.17,9,4,12,0.01
2012-2-4,80,68,60,65,61,58,94,79,51,30.22,30.08,7,3,9,0.00
2012-2-5,81,66,53,68,61,52,100,84,56,30.11,29.99,4,1,9,0.00
2012-2-6,80,67,60,69,63,58,99,88,61,30.11,30.02,8,2,15,0.00
2012-2-7,72,66,62,66,63,60,97,91,80,30.10,30.02,5,3,15,0.00
2012-2-8,77,63,48,59,53,45,97,74,40,30.13,30.03,5,2,15,0.00
2012-2-9,71,52,37,58,48,36,97,85,61,30.19,30.09,5,2,15,0.00
2012-2-10,78,68,55,66,62,54,98,82,65,30.11,29.93,5,1,15,0.00
2012-2-11,66,57,47,61,49,38,97,75,49,30.13,29.90,13,7,21,0.00
2012-2-12,51,41,31,36,27,20,92,62,37,30.39,30.16,8,3,21,0.18
2012-2-13,66,48,33,48,38,31,95,74,44,30.32,30.14,4,1,21,0.04
2012-2-14,78,60,45,58,52,44,99,78,48,30.16,30.05,7,2,21,0.02
2012-2-15,80,64,43,61,55,42,99,77,48,30.22,30.13,4,2,21,0.00
2012-2-16,82,67,54,62,58,52,94,76,49,30.19,30.09,5,2,21,0.00
2012-2-17,74,68,64,67,66,63,97,93,76,30.05,30.01,3,1,21,0.00
2012-2-18,64,64,64,64,64,64,97,97,97,30.02,30.02,0,0,21,0.00
2012-4-17,66,66,66,60,60,60,80,80,80,30.11,30.11,1,1,11,0.00
2012-4-21,74,70,65,68,66,64,96,87,82,29.80,29.69,7,4,15,0.06
2012-4-22,73,73,73,64,64,64,74,74,74,29.59,29.59,8,8,8,0.00
2012-4-23,72,60,43,54,44,38,82,57,36,29.92,29.76,13,6,26,0.00
2012-4-24,72,58,43,47,37,32,87,50,23,30.06,29.92,8,4,26,0.00
2012-4-25,82,59,35,54,44,31,95,66,29,30.14,30.05,3,1,26,0.43
2012-4-27,88,82,75,62,55,48,64,44,25,30.15,30.04,3,2,26,0.00
2012-5-8,90,78,58,72,65,57,98,69,37,29.93,29.83,5,2,16,0.00
2012-5-9,86,72,61,73,67,59,97,85,56,29.90,29.84,6,2,16,0.01
2012-6-21,-200,0,200,-100,-100,-100,0,0,100,29.95,29.95,0,-999,5,0.00
2012-6-22,-200,0,200,-100,-100,-100,0,0,100,29.94,29.88,0,-999,5,0.00
2012-6-25,-200,0,200,-100,-100,-100,0,0,100,29.78,29.70,0,-999,5,0.00
2012-6-26,-200,0,200,-100,-100,-100,0,0,100,29.64,29.64,0,-999,5,0.00
2012-6-27,-200,0,200,-100,-100,-100,0,0,100,29.97,29.75,0,-999,5,0.00
2012-6-28,-200,0,200,-100,-100,-100,0,0,100,30.10,30.02,0,-999,0,0.00
2012-6-29,-200,0,200,-100,-100,-100,0,0,100,30.06,29.94,0,-999,0,0.00
2012-6-30,-200,0,200,-100,-100,-100,0,0,100,30.02,29.95,0,-999,0,0.00
2012-7-1,-200,0,200,-100,-100,-100,0,0,100,30.08,30.00,0,-999,0,0.00
2012-7-2,-200,0,200,-100,-100,-100,0,0,100,30.08,29.99,0,-999,0,0.00
2012-7-3,-200,0,200,-100,-100,-100,0,0,100,30.08,30.01,0,-999,0,0.00
2012-7-4,-200,0,200,-100,-100,-100,0,0,100,30.08,30.04,0,-999,0,0.00
2012-7-9,-200,0,200,-100,-100,-100,0,0,100,30.06,29.97,0,-999,0,0.00
2012-7-10,-200,0,200,-100,-100,-100,0,0,100,30.07,29.99,0,-999,0,0.00
2012-7-11,-200,0,200,-100,-100,-100,0,0,100,30.07,29.98,0,-999,0,0.00
2012-7-12,-200,0,200,-100,-100,-100,0,0,100,30.05,29.96,0,-999,0,0.00
2012-7-13,-200,0,200,-100,-100,-100,0,0,100,30.08,30.00,0,-999,0,0.00
2012-7-14,-200,0,200,-100,-100,-100,0,0,100,30.13,30.03,0,-999,0,0.00
2012-7-15,-200,0,200,-100,-100,-100,0,0,100,30.13,30.06,0,-999,0,0.00
2012-7-16,-200,0,200,-100,-100,-100,0,0,100,30.10,29.98,0,-999,0,0.00
2012-7-17,-200,0,200,-100,-100,-100,0,0,100,30.05,29.98,0,-999,0,0.00
2012-7-18,-200,0,200,-100,-100,-100,0,0,100,30.13,30.02,0,-999,0,0.00
2012-7-19,-200,0,200,-100,-100,-100,0,0,100,30.14,30.11,0,-999,0,0.00
2012-7-20,-200,0,200,-100,-100,-100,0,0,100,30.15,30.04,0,-999,0,0.00
2012-7-21,-200,0,200,-100,-100,-100,0,0,100,30.13,30.04,0,-999,0,0.00
2012-7-22,-200,0,200,-100,-100,-100,0,0,100,30.18,30.09,0,-999,0,0.00
2012-7-23,-200,0,200,-100,-100,-100,0,0,100,30.18,30.13,0,-999,0,0.00
2012-8-17,-200,0,200,-100,-100,-100,0,0,100,30.04,29.95,0,-999,0,0.00
2012-8-18,-200,0,200,-100,-100,-100,0,0,100,30.01,29.92,0,-999,0,0.00
2012-8-19,-200,0,200,-100,-100,-100,0,0,100,30.01,29.92,0,-999,0,0.00
2012-8-20,-200,0,200,-100,-100,-100,0,0,100,30.02,29.89,0,-999,0,0.00
2012-8-21,-200,0,200,-100,-100,-100,0,0,100,30.12,29.98,0,-999,0,0.00
2012-8-22,-200,0,200,-100,-100,-100,0,0,100,30.10,30.01,0,-999,0,0.00
2012-8-23,-200,0,200,-100,-100,-100,0,0,100,30.12,30.03,0,-999,0,0.00
2012-8-24,-200,0,200,-100,-100,-100,0,0,100,30.08,29.98,0,-999,0,0.00
2012-8-25,-200,0,200,-100,-100,-100,0,0,100,30.04,29.96,0,-999,0,0.00
2012-8-26,-200,0,200,-100,-100,-100,0,0,100,30.01,29.86,0,-999,0,0.00
2012-8-27,-200,0,200,-100,-100,-100,0,0,100,29.88,29.79,0,-999,0,0.00
2012-8-28,-200,0,200,-100,-100,-100,0,0,100,29.99,29.90,0,-999,0,0.00
2012-8-29,-200,0,200,-100,-100,-100,0,0,100,30.01,29.93,0,-999,0,0.00
2012-8-30,-200,0,200,-100,-100,-100,0,0,100,30.13,29.98,0,-999,0,0.00
2012-8-31,-200,0,200,-100,-100,-100,0,0,100,30.19,30.11,0,-999,0,0.00
2012-9-1,-200,0,200,-100,-100,-100,0,0,100,30.18,30.07,0,-999,0,0.00
2012-9-2,-200,0,200,-100,-100,-100,0,0,100,30.11,30.00,0,-999,0,0.00
2012-9-3,-200,0,200,-100,-100,-100,0,0,100,30.07,29.98,0,-999,0,0.00
2012-9-4,-200,0,200,-100,-100,-100,0,0,100,30.04,29.93,0,-999,0,0.00
2012-9-5,-200,0,200,-100,-100,-100,0,0,100,30.01,29.92,0,-999,0,0.00
2012-9-6,-200,0,200,-100,-100,-100,0,0,100,30.04,29.96,0,-999,0,0.00
2012-9-7,-200,0,200,-100,-100,-100,0,0,100,30.02,29.90,0,-999,0,0.00
2012-9-8,-200,0,200,-100,-100,-100,0,0,100,29.98,29.91,0,-999,0,0.00
2012-9-15,81,20,81,74,-56,-100,80,20,80,30.07,30.01,1,-749,3,0.00
2012-9-16,-200,0,200,-100,-100,-100,0,0,100,30.07,30.00,0,-999,3,0.00
2012-9-17,-200,0,200,-100,-100,-100,0,0,100,30.04,29.91,0,-999,14,0.00
2012-9-18,-200,0,200,-100,-100,-100,0,0,100,29.97,29.89,0,-999,14,0.00
2012-9-19,-200,0,200,-100,-100,-100,0,0,100,30.05,29.93,0,-999,0,0.00
2012-9-20,-200,0,200,-100,-100,-100,0,0,100,30.06,29.94,0,-999,0,0.00
2012-9-21,-200,0,200,-100,-100,-100,0,0,100,30.03,29.92,0,-999,0,0.00
2012-9-22,-200,0,200,-100,-100,-100,0,0,100,30.05,29.96,0,-999,0,0.00
2012-9-23,-200,0,200,-100,-100,-100,0,0,100,30.09,30.00,0,-999,0,0.00
2012-9-24,-200,0,200,-100,-100,-100,0,0,100,30.12,30.03,0,-999,0,0.00
2012-9-25,-200,0,200,-100,-100,-100,0,0,100,30.12,30.04,0,-999,0,0.00
2012-9-26,-200,0,200,-100,-100,-100,0,0,100,30.13,30.05,0,-999,0,0.00
2012-9-27,-200,0,200,-100,-100,-100,0,0,100,30.13,30.01,0,-999,0,0.00
2012-9-28,-200,0,200,-100,-100,-100,0,0,100,30.08,29.95,0,-999,0,0.00
2012-9-29,-200,0,200,-100,-100,-100,0,0,100,30.01,29.86,0,-999,0,0.00
2012-9-30,-200,0,200,-100,-100,-100,0,0,100,29.93,29.79,0,-999,0,0.00
2012-10-1,-200,0,200,-100,-100,-100,0,0,100,29.84,29.74,0,-999,0,0.00
2012-10-2,-200,0,200,-100,-100,-100,0,0,100,30.04,29.82,0,-999,0,0.00
2012-10-3,-200,0,200,-100,-100,-100,0,0,100,30.18,30.04,0,-999,0,0.00
2012-10-4,-200,0,200,-100,-100,-100,0,0,100,30.20,30.07,0,-999,0,0.00
2012-10-5,-200,0,200,-100,-100,-100,0,0,100,30.15,29.98,0,-999,0,0.00
2012-10-6,-200,0,200,-100,-100,-100,0,0,100,30.00,29.87,0,-999,0,0.00
2012-10-7,-200,0,200,-100,-100,-100,0,0,100,30.01,29.93,0,-999,0,0.00
2012-10-8,-200,0,200,-100,-100,-100,0,0,100,30.05,29.94,0,-999,0,0.00
2012-10-9,-200,0,200,-100,-100,-100,0,0,100,30.07,29.98,0,-999,0,0.00
2012-10-10,-200,0,200,-100,-100,-100,0,0,100,30.12,30.04,0,-999,0,0.00
2012-10-11,-200,0,200,-100,-100,-100,0,0,100,30.18,30.10,0,-999,0,0.00
2012-10-12,-200,0,200,-100,-100,-100,0,0,100,30.19,30.10,0,-999,0,0.00
2012-10-13,-200,0,200,-100,-100,-100,0,0,100,30.19,30.10,0,-999,0,0.00
2012-10-14,-200,0,200,-100,-100,-100,0,0,100,30.13,30.01,0,-999,0,0.00
2012-10-15,-200,0,200,-100,-100,-100,0,0,100,30.00,29.83,0,-999,0,0.00
2012-10-16,-200,0,200,-100,-100,-100,0,0,100,29.89,29.80,0,-999,0,0.00
2012-10-17,-200,0,200,-100,-100,-100,0,0,100,29.91,29.82,0,-999,0,0.00
2012-10-18,-200,0,200,-100,-100,-100,0,0,100,29.92,29.80,0,-999,0,0.00
2012-10-19,-200,0,200,-100,-100,-100,0,0,100,29.89,29.81,0,-999,0,0.00
2012-10-20,-200,0,200,-100,-100,-100,0,0,100,29.98,29.86,0,-999,0,0.00
2012-10-21,-200,0,200,-100,-100,-100,0,0,100,30.07,29.97,0,-999,0,0.00
2012-10-22,-200,0,200,-100,-100,-100,0,0,100,30.09,30.01,0,-999,0,0.00
2012-10-23,-200,0,200,-100,-100,-100,0,0,100,30.06,29.99,0,-999,0,0.00
2012-10-24,-200,0,200,-100,-100,-100,0,0,100,30.04,29.93,0,-999,0,0.00
2012-10-25,-200,0,200,-100,-100,-100,0,0,100,29.91,29.81,0,-999,0,0.00
2012-10-26,-200,0,200,-100,-100,-100,0,0,100,29.79,29.61,0,-999,0,0.00
2012-10-27,-200,0,200,-100,-100,-100,0,0,100,29.67,29.56,0,-999,0,0.00
2012-10-28,-200,0,200,-100,-100,-100,0,0,100,29.76,29.70,0,-999,0,0.00
2012-10-29,-200,0,200,-100,-100,-100,0,0,100,29.89,29.76,0,-999,0,0.00
2012-10-30,-200,0,200,-100,-100,-100,0,0,100,29.96,29.84,0,-999,0,0.00
2012-10-31,-200,0,200,-100,-100,-100,0,0,100,30.07,29.97,0,-999,0,0.00
2012-11-1,-200,0,200,-100,-100,-100,0,0,100,30.05,29.95,0,-999,0,0.00
2012-11-2,-200,0,200,-100,-100,-100,0,0,100,30.02,30.02,0,-999,0,0.00
2012-11-7,64,16,62,43,-64,-100,49,12,46,30.01,29.89,10,-747,10,0.00
2012-11-8,69,17,65,41,-63,-100,42,10,34,30.19,30.01,7,-737,15,0.00
2012-11-9,74,34,39,46,-20,-100,89,31,31,30.27,30.17,7,-433,15,0.00
2012-11-10,76,57,37,53,47,35,96,73,44,30.33,30.24,8,3,15,0.00
2012-11-11,77,62,46,65,55,44,98,80,54,30.31,30.23,11,3,15,0.73
2012-11-12,81,66,51,66,59,50,98,81,53,30.26,30.16,8,3,15,0.00
2012-11-13,79,64,51,66,57,50,98,81,55,30.19,30.10,4,2,15,0.00
2012-11-14,79,63,52,66,54,-100,98,84,60,30.18,30.10,7,-39,15,0.00
2012-11-15,70,63,58,63,61,57,98,92,79,30.16,30.08,5,3,9,0.00
2012-11-16,68,60,56,56,56,54,95,84,66,30.18,30.11,7,4,10,0.00
2012-11-17,77,66,58,62,58,56,94,79,55,30.17,30.08,8,5,12,0.96
2012-11-18,74,63,48,60,57,44,93,81,57,30.20,30.11,8,5,13,0.00
2012-11-19,58,54,41,54,50,39,98,90,83,30.18,30.10,7,4,13,0.00
2012-11-20,66,55,42,57,51,39,96,87,72,30.09,30.01,8,3,13,0.00
2012-11-21,74,56,40,54,47,38,97,75,36,30.10,30.00,11,4,20,0.00
2012-11-22,71,53,32,49,41,29,93,70,32,30.21,30.08,12,5,20,1.47
2012-11-23,73,51,30,44,36,28,96,65,23,30.23,30.10,7,3,20,0.00
2012-11-24,75,53,33,57,44,31,97,74,45,30.12,30.00,8,3,20,0.00
2012-11-25,72,47,27,43,32,26,97,67,21,30.18,30.10,5,2,20,0.00
2012-11-26,78,55,32,58,46,30,97,76,47,30.24,30.14,5,2,20,0.00
2012-11-27,79,61,45,63,54,44,98,81,50,30.20,30.09,7,2,20,0.03
2012-11-28,73,42,50,60,4,-100,94,52,61,30.28,30.13,9,-330,20,0.01
2012-11-29,76,57,47,59,46,-100,97,76,50,30.28,30.22,10,-39,20,0.00
2012-11-30,78,60,44,58,52,41,98,77,44,30.27,30.18,8,4,20,0.00
2012-12-1,77,60,42,60,53,40,98,80,53,30.27,30.19,11,4,20,0.00
2012-12-2,80,65,48,63,58,47,98,79,47,30.29,30.19,9,4,20,0.00
2012-12-3,80,67,49,65,58,46,97,76,43,30.30,30.20,7,3,20,0.00
2012-12-4,77,60,42,60,52,40,98,77,47,30.30,30.19,8,3,20,0.00
2012-12-5,78,64,46,62,57,45,98,81,49,30.20,30.05,7,3,20,0.00
2012-12-6,79,66,52,64,59,51,98,80,53,30.06,29.94,6,2,20,0.00
2012-12-7,78,60,55,66,47,-100,98,80,61,30.04,29.93,4,-84,5,0.00
2012-12-8,79,66,63,67,57,-100,99,84,61,30.07,29.99,6,-39,6,0.13
2012-12-9,80,69,57,69,64,55,98,87,63,30.10,30.01,4,2,6,0.00
2012-12-10,82,70,58,72,67,57,99,90,72,30.03,29.86,11,4,14,0.09
2012-12-11,83,65,65,73,54,-100,98,84,72,30.03,29.91,6,-81,14,0.02
2012-12-12,78,62,65,74,48,-100,99,83,81,30.10,30.01,6,-122,14,0.83
2012-12-13,66,38,54,65,-2,-100,98,57,84,30.20,30.06,7,-372,14,0.00
2012-12-14,72,60,54,61,56,52,96,87,67,30.24,30.11,8,5,14,0.00
2012-12-15,77,63,51,64,58,50,99,86,56,30.18,30.07,5,3,14,0.00
2012-12-16,80,64,49,65,58,48,99,84,56,30.08,29.97,5,2,14,0.00
2012-12-17,81,67,57,67,61,55,99,83,53,29.99,29.88,10,3,14,0.00
2012-12-18,81,61,48,69,46,-100,98,74,48,30.04,29.89,12,-79,18,0.00
2012-12-19,78,55,32,54,44,31,98,74,34,30.13,30.04,5,1,18,1.50
2012-12-20,81,62,41,65,54,39,99,78,48,30.11,29.94,10,5,18,0.00
2012-12-21,69,54,41,66,41,30,95,62,31,30.21,29.95,13,9,18,3.41
2012-12-22,63,45,34,38,29,21,96,58,20,30.31,30.21,8,4,18,3.33
2012-12-23,70,45,36,47,28,-100,97,70,38,30.28,30.17,3,-90,18,4.71
2012-12-24,68,55,41,55,49,41,97,82,54,30.16,30.00,10,2,18,0.69
2012-12-25,74,34,46,59,-13,-100,96,44,58,30.05,29.97,7,-426,18,0.00
2012-12-26,76,64,52,67,59,48,98,84,71,29.99,29.79,14,8,20,0.15
2012-12-27,63,46,34,45,38,32,97,77,43,30.14,30.01,6,3,20,2.00
2012-12-28,70,56,40,61,50,39,98,83,52,30.12,29.96,6,2,20,2.74
2012-12-29,75,66,51,70,62,48,98,87,68,30.15,29.89,13,8,20,0.08
2012-12-30,54,47,37,46,39,33,88,76,57,30.38,30.15,9,6,20,0.00
2012-12-31,74,54,38,56,47,36,97,79,54,30.35,30.21,9,3,20,0.00
2013-1-1,76,55,39,59,44,-100,98,77,53,30.23,30.07,8,-40,20,0.00